Time;durP1;ratioP1;P1;durP2;ratioP2;P2;SDS_P1;SDS_P2;PMS_P1;PMS_P2;Temp;Humidity;BMP_temperature;BMP_pressure;BME280_temperature;BME280_humidity;BME280_pressure;Samples;Min_cycle;Max_cycle;Signal;HPM_P1;HPM_P2
2021/09/08 00:00:47;;;;;;;22.27;13.35;;;;;;;15.38;87.31;96640.56;4976234;28;20213;-72
2021/09/08 00:03:14;;;;;;;22.58;13.05;;;;;;;15.20;86.16;96640.25;4975702;28;20199;-72
2021/09/08 00:05:41;;;;;;;21.38;12.13;;;;;;;15.27;85.04;96641.13;4975089;28;20203;-72
2021/09/08 00:08:08;;;;;;;18.48;11.30;;;;;;;15.15;84.29;96624.06;4975069;28;20223;-72
2021/09/08 00:10:35;;;;;;;19.65;11.77;;;;;;;15.14;84.48;96630.38;4976065;28;21176;-72
2021/09/08 00:13:01;;;;;;;18.80;11.90;;;;;;;14.82;85.50;96630.19;4976198;28;20211;-72
2021/09/08 00:15:28;;;;;;;22.58;12.82;;;;;;;14.79;86.26;96623.44;4975055;28;20234;-72
2021/09/08 00:17:56;;;;;;;22.45;13.80;;;;;;;15.04;86.38;96621.16;4975657;28;20223;-72
2021/09/08 00:20:22;;;;;;;23.90;13.80;;;;;;;14.99;87.47;96619.06;4975789;28;20203;-72
2021/09/08 00:22:49;;;;;;;26.15;14.98;;;;;;;15.08;86.96;96617.09;4975835;28;20207;-72
2021/09/08 00:25:15;;;;;;;20.17;12.80;;;;;;;14.85;86.43;96616.53;4974709;28;21269;-72
2021/09/08 00:27:42;;;;;;;24.08;13.43;;;;;;;14.65;86.20;96613.72;4976143;28;20223;-72
2021/09/08 00:30:09;;;;;;;23.90;14.13;;;;;;;14.85;87.42;96612.03;4975034;28;20663;-72
2021/09/08 00:32:36;;;;;;;22.48;14.10;;;;;;;14.79;88.40;96610.16;4975607;28;20206;-72
2021/09/08 00:35:05;;;;;;;24.63;13.55;;;;;;;14.93;86.46;96614.56;4975787;28;20210;-72
2021/09/08 00:37:32;;;;;;;20.58;12.73;;;;;;;14.70;86.13;96615.78;4974889;28;20231;-72
2021/09/08 00:39:58;;;;;;;23.17;12.50;;;;;;;14.88;84.38;96618.78;4974652;28;20203;-72
2021/09/08 00:42:25;;;;;;;21.15;12.98;;;;;;;14.66;85.49;96617.19;4975363;28;20211;-72
2021/09/08 00:44:52;;;;;;;24.90;13.98;;;;;;;14.60;85.89;96610.03;4975752;28;20252;-72
2021/09/08 00:47:19;;;;;;;22.73;13.00;;;;;;;14.67;85.34;96606.38;4974148;28;20231;-72
2021/09/08 00:49:46;;;;;;;21.48;13.18;;;;;;;14.67;84.87;96608.22;4974927;28;20291;-72
2021/09/08 00:52:15;;;;;;;20.33;12.40;;;;;;;14.94;83.51;96610.88;4975990;28;20195;-72
2021/09/08 00:54:46;;;;;;;24.25;13.68;;;;;;;14.67;84.61;96601.06;4974879;28;20245;-72
2021/09/08 00:57:13;;;;;;;20.67;12.07;;;;;;;14.64;83.21;96611.28;4974424;28;20234;-72
2021/09/08 00:59:41;;;;;;;18.98;11.57;;;;;;;14.59;83.29;96595.13;4974913;28;20682;-72
2021/09/08 01:02:07;;;;;;;19.65;11.70;;;;;;;14.56;84.48;96594.69;4974665;28;20715;-72
2021/09/08 01:04:34;;;;;;;19.73;11.65;;;;;;;14.47;84.37;96599.28;4975053;28;21037;-72
2021/09/08 01:07:01;;;;;;;19.90;13.05;;;;;;;14.41;87.27;96599.25;4974376;28;20223;-72
2021/09/08 01:09:30;;;;;;;20.90;12.25;;;;;;;14.52;85.76;96593.44;4974782;28;21015;-72
2021/09/08 01:11:56;;;;;;;20.60;12.23;;;;;;;14.46;84.75;96594.19;4974815;28;20211;-72
2021/09/08 01:14:23;;;;;;;20.13;11.40;;;;;;;14.50;84.68;96595.44;4975473;28;20199;-72
2021/09/08 01:16:50;;;;;;;19.48;11.50;;;;;;;14.42;83.38;96598.22;4975339;28;20707;-72
2021/09/08 01:19:17;;;;;;;16.98;11.15;;;;;;;14.20;83.16;96580.72;4978276;28;21172;-72
2021/09/08 01:21:43;;;;;;;24.85;11.65;;;;;;;14.13;83.93;96587.81;4977761;28;20207;-72
2021/09/08 01:24:11;;;;;;;18.80;11.85;;;;;;;13.87;85.33;96586.69;4978910;28;20202;-72
2021/09/08 01:26:38;;;;;;;19.58;11.45;;;;;;;13.78;85.46;96588.63;4977533;28;20227;-72
2021/09/08 01:29:05;;;;;;;18.58;11.70;;;;;;;13.98;84.07;96587.00;4978719;28;20214;-72
2021/09/08 01:31:32;;;;;;;19.13;11.48;;;;;;;13.73;84.77;96590.22;4977661;28;20214;-72
2021/09/08 01:33:59;;;;;;;21.05;12.43;;;;;;;14.04;83.79;96586.25;4978551;28;21348;-72
2021/09/08 01:36:25;;;;;;;21.50;12.68;;;;;;;13.98;84.28;96584.34;4977109;28;20234;-73
2021/09/08 01:38:52;;;;;;;24.95;13.15;;;;;;;14.07;83.94;96588.53;4977718;28;20210;-72
2021/09/08 01:41:20;;;;;;;20.42;12.75;;;;;;;14.12;83.65;96586.16;4978056;28;20203;-72
2021/09/08 01:43:47;;;;;;;22.45;13.65;;;;;;;14.19;83.66;96587.03;4978512;28;20203;-72
2021/09/08 01:46:18;;;;;;;20.65;12.82;;;;;;;14.36;83.63;96575.16;4977310;28;20226;-72
2021/09/08 01:48:45;;;;;;;19.30;12.65;;;;;;;13.87;84.81;96576.09;4978343;28;20217;-72
2021/09/08 01:51:12;;;;;;;26.98;14.15;;;;;;;13.98;85.70;96572.94;4977081;28;20691;-72
2021/09/08 01:53:38;;;;;;;26.92;15.40;;;;;;;13.94;87.90;96571.66;4977958;28;20597;-73
2021/09/08 01:56:05;;;;;;;27.52;15.13;;;;;;;14.05;88.05;96566.69;4978223;28;20242;-72
2021/09/08 01:58:33;;;;;;;28.20;15.27;;;;;;;14.18;87.26;96567.66;4977663;28;20211;-73
2021/09/08 02:01:00;;;;;;;28.67;15.25;;;;;;;14.13;85.95;96571.91;4977000;28;20199;-72
2021/09/08 02:03:26;;;;;;;21.42;13.13;;;;;;;14.09;83.83;96567.97;4978512;28;20203;-72
2021/09/08 02:05:53;;;;;;;21.50;13.27;;;;;;;13.88;83.60;96562.66;4976530;28;20200;-73
2021/09/08 02:08:19;;;;;;;19.43;12.03;;;;;;;13.77;83.72;96565.81;4974515;28;20211;-72
2021/09/08 02:10:45;;;;;;;22.02;12.68;;;;;;;13.97;83.12;96564.16;4978184;28;20217;-72
2021/09/08 02:13:12;;;;;;;24.65;13.27;;;;;;;13.98;83.54;96557.84;4977488;28;20349;-73
2021/09/08 02:15:40;;;;;;;22.67;13.27;;;;;;;14.11;84.57;96558.00;4976921;28;21194;-74
2021/09/08 02:18:06;;;;;;;26.83;14.90;;;;;;;13.96;84.33;96564.34;4977683;28;20812;-74
2021/09/08 02:20:33;;;;;;;23.15;14.25;;;;;;;14.08;83.99;96558.41;4978119;28;20973;-73
2021/09/08 02:22:59;;;;;;;25.65;14.25;;;;;;;14.11;83.51;96553.50;4977116;28;20578;-73
2021/09/08 02:25:26;;;;;;;24.95;14.68;;;;;;;13.81;84.19;96555.66;4977635;28;20215;-73
2021/09/08 02:27:52;;;;;;;27.00;15.02;;;;;;;14.03;84.26;96552.81;4977041;28;20242;-73
2021/09/08 02:30:19;;;;;;;28.15;14.68;;;;;;;14.04;84.48;96549.16;4977101;28;20581;-73
2021/09/08 02:32:46;;;;;;;27.48;15.63;;;;;;;14.11;84.40;96542.91;4977420;28;20207;-73
2021/09/08 02:35:13;;;;;;;25.08;15.15;;;;;;;13.77;84.20;96549.94;4977104;28;20214;-73
2021/09/08 02:37:39;;;;;;;30.08;15.13;;;;;;;13.71;85.19;96541.88;4976791;28;20235;-72
2021/09/08 02:40:07;;;;;;;29.65;16.55;;;;;;;14.03;85.58;96544.88;4977018;28;20778;-73
2021/09/08 02:42:34;;;;;;;29.95;16.98;;;;;;;13.97;86.08;96544.81;4977586;28;20199;-73
2021/09/08 02:45:00;;;;;;;30.20;17.98;;;;;;;13.97;86.40;96548.25;4977254;28;20207;-73
2021/09/08 02:47:27;;;;;;;29.00;16.02;;;;;;;13.77;85.67;96547.28;4976185;28;20223;-73
2021/09/08 02:49:54;;;;;;;35.15;17.67;;;;;;;14.02;86.28;96549.31;4977516;28;20207;-73
2021/09/08 02:52:21;;;;;;;36.88;19.58;;;;;;;14.07;86.61;96546.13;4977635;28;20204;-73
2021/09/08 02:54:47;;;;;;;33.43;18.97;;;;;;;14.10;86.65;96541.31;4976882;28;20222;-73
2021/09/08 02:57:14;;;;;;;31.55;18.58;;;;;;;13.99;86.13;96543.59;4976477;28;20234;-74
2021/09/08 02:59:40;;;;;;;26.52;16.42;;;;;;;13.82;85.17;96536.09;4977105;28;20203;-73
2021/09/08 03:02:07;;;;;;;34.25;19.33;;;;;;;14.04;85.98;96538.56;4976690;28;20196;-73
2021/09/08 03:04:34;;;;;;;27.35;15.73;;;;;;;14.10;84.46;96541.31;4976848;28;20207;-73
2021/09/08 03:07:02;;;;;;;23.50;15.13;;;;;;;14.07;83.41;96540.81;4977050;28;20212;-73
2021/09/08 03:09:29;;;;;;;26.38;14.02;;;;;;;13.96;82.56;96532.56;4976533;28;20204;-72
2021/09/08 03:11:55;;;;;;;25.05;14.25;;;;;;;13.63;82.89;96532.25;4976168;28;20206;-72
2021/09/08 03:14:22;;;;;;;27.55;16.58;;;;;;;13.81;84.16;96524.69;4977082;28;20207;-72
2021/09/08 03:16:48;;;;;;;29.60;17.27;;;;;;;13.78;85.11;96530.34;4976311;28;20254;-73
2021/09/08 03:19:15;;;;;;;33.33;17.70;;;;;;;13.76;85.78;96524.44;4976435;28;20203;-73
2021/09/08 03:21:41;;;;;;;30.45;17.52;;;;;;;13.78;85.93;96529.53;4977341;28;20207;-72
2021/09/08 03:24:09;;;;;;;33.67;17.63;;;;;;;13.79;86.25;96521.41;4976293;28;20207;-72
2021/09/08 03:26:35;;;;;;;28.48;16.15;;;;;;;13.72;85.24;96520.53;4975840;28;20250;-73
2021/09/08 03:29:02;;;;;;;31.25;17.48;;;;;;;13.81;86.21;96521.22;4976800;28;20207;-74
2021/09/08 03:31:28;;;;;;;31.20;18.02;;;;;;;13.70;87.39;96521.72;4977226;28;20211;-74
2021/09/08 03:33:55;;;;;;;29.27;17.67;;;;;;;13.68;86.41;96521.09;4975983;28;20206;-73
2021/09/08 03:36:21;;;;;;;28.47;16.97;;;;;;;13.68;86.08;96518.44;4975753;28;20238;-73
2021/09/08 03:38:47;;;;;;;28.38;17.05;;;;;;;13.70;85.65;96519.88;4975980;28;20200;-72
2021/09/08 03:41:15;;;;;;;29.25;17.60;;;;;;;13.91;86.17;96514.56;4975808;28;20204;-73
2021/09/08 03:43:42;;;;;;;30.80;17.33;;;;;;;13.87;84.91;96518.63;4976310;28;20567;-73
2021/09/08 03:46:08;;;;;;;32.30;18.67;;;;;;;13.88;86.45;96519.47;4975714;28;20211;-73
2021/09/08 03:48:35;;;;;;;34.95;19.75;;;;;;;13.99;87.37;96515.28;4976011;28;20683;-73
2021/09/08 03:51:02;;;;;;;31.27;17.90;;;;;;;14.06;86.20;96521.47;4976218;28;20203;-73
2021/09/08 03:53:28;;;;;;;35.53;20.60;;;;;;;13.90;86.43;96515.59;4976212;28;20204;-73
2021/09/08 03:55:55;;;;;;;25.10;15.45;;;;;;;13.72;84.37;96512.59;4975417;28;20218;-72
2021/09/08 03:58:23;;;;;;;28.60;16.35;;;;;;;13.83;85.53;96517.38;4975840;28;20215;-73
2021/09/08 04:00:49;;;;;;;21.25;13.20;;;;;;;13.53;84.22;96517.66;4975974;28;20210;-73
2021/09/08 04:03:15;;;;;;;21.25;13.75;;;;;;;13.50;84.70;96518.88;4976258;28;20656;-73
2021/09/08 04:05:42;;;;;;;23.63;13.68;;;;;;;13.46;83.29;96514.94;4974872;28;20697;-73
2021/09/08 04:08:08;;;;;;;23.88;14.57;;;;;;;13.43;84.72;96525.94;4975852;28;20223;-73
2021/09/08 04:10:35;;;;;;;25.70;14.52;;;;;;;13.56;83.62;96514.66;4976347;28;20207;-72
2021/09/08 04:13:01;;;;;;;23.70;14.15;;;;;;;13.54;83.95;96506.91;4975864;28;20407;-73
2021/09/08 04:15:29;;;;;;;25.42;15.45;;;;;;;13.60;84.60;96506.13;4974789;28;20214;-73
2021/09/08 04:17:55;;;;;;;25.00;14.50;;;;;;;13.35;84.69;96511.97;4977089;28;20224;-73
2021/09/08 04:20:22;;;;;;;23.55;15.05;;;;;;;13.31;86.44;96517.84;4975696;28;20209;-73
2021/09/08 04:22:49;;;;;;;21.13;12.93;;;;;;;13.39;83.95;96506.13;4975545;28;20210;-73
2021/09/08 04:25:15;;;;;;;24.70;13.93;;;;;;;13.31;84.33;96504.63;4974805;28;20210;-73
2021/09/08 04:27:41;;;;;;;22.30;14.63;;;;;;;13.34;84.52;96509.53;4976154;28;20238;-73
2021/09/08 04:30:09;;;;;;;20.10;13.02;;;;;;;13.20;83.33;96500.63;4975343;28;20203;-74
2021/09/08 04:32:36;;;;;;;26.98;14.35;;;;;;;13.26;84.16;96504.34;4976026;28;20573;-73
2021/09/08 04:35:04;;;;;;;22.85;13.93;;;;;;;13.07;84.55;96508.41;4975571;28;20211;-73
2021/09/08 04:37:32;;;;;;;22.43;14.00;;;;;;;13.11;83.82;96508.84;4974200;28;20238;-73
2021/09/08 04:39:58;;;;;;;20.30;12.43;;;;;;;13.21;82.84;96509.38;4975343;28;20208;-73
2021/09/08 04:42:25;;;;;;;20.23;13.00;;;;;;;13.11;83.17;96506.19;4975828;28;20222;-73
2021/09/08 04:44:51;;;;;;;23.70;13.80;;;;;;;13.17;83.59;96502.81;4975234;28;20210;-72
2021/09/08 04:47:18;;;;;;;20.90;12.40;;;;;;;12.90;83.35;96511.44;4974454;28;20229;-73
2021/09/08 04:49:45;;;;;;;19.57;12.60;;;;;;;12.87;83.72;96507.34;4976012;28;20211;-73
2021/09/08 04:52:12;;;;;;;22.73;12.90;;;;;;;12.84;83.21;96509.50;4974925;28;20229;-73
2021/09/08 04:54:38;;;;;;;20.33;12.40;;;;;;;12.83;83.38;96507.88;4975426;28;20218;-72
2021/09/08 04:57:05;;;;;;;18.73;12.77;;;;;;;12.93;83.63;96508.44;4975808;28;20256;-72
2021/09/08 04:59:31;;;;;;;20.67;12.20;;;;;;;12.89;83.11;96515.09;4977205;28;20207;-72
2021/09/08 05:01:58;;;;;;;27.63;15.10;;;;;;;12.99;83.73;96515.63;4976521;28;20624;-72
2021/09/08 05:04:24;;;;;;;26.60;16.30;;;;;;;13.07;85.99;96518.16;4976881;28;20229;-73
2021/09/08 05:06:52;;;;;;;31.00;17.67;;;;;;;13.35;86.66;96511.16;4975461;28;20930;-72
2021/09/08 05:09:18;;;;;;;22.83;14.30;;;;;;;12.96;84.47;96514.19;4976861;28;20237;-72
2021/09/08 05:11:45;;;;;;;23.48;13.63;;;;;;;13.01;83.83;96518.94;4976370;28;20214;-72
2021/09/08 05:14:11;;;;;;;23.00;13.88;;;;;;;12.79;84.56;96511.88;4976629;28;20214;-72
2021/09/08 05:16:38;;;;;;;20.67;12.93;;;;;;;12.83;84.37;96513.16;4975965;28;20234;-72
2021/09/08 05:19:05;;;;;;;20.80;12.52;;;;;;;12.76;84.24;96514.09;4976225;28;20199;-72
2021/09/08 05:21:32;;;;;;;24.37;13.13;;;;;;;13.00;84.04;96510.16;4976712;28;20204;-71
2021/09/08 05:23:59;;;;;;;23.45;14.38;;;;;;;13.17;85.06;96513.41;4976699;28;20207;-72
2021/09/08 05:26:26;;;;;;;24.42;14.77;;;;;;;13.11;85.01;96504.41;4976793;28;20227;-71
2021/09/08 05:28:52;;;;;;;24.00;13.73;;;;;;;13.15;84.95;96515.41;4976424;28;20208;-72
2021/09/08 05:31:19;;;;;;;24.87;15.00;;;;;;;13.28;85.34;96515.59;4975789;28;20207;-72
2021/09/08 05:33:45;;;;;;;21.63;13.77;;;;;;;13.25;84.71;96510.66;4975589;28;20554;-72
2021/09/08 05:36:14;;;;;;;22.58;13.88;;;;;;;13.26;84.82;96512.28;4975611;28;20614;-72
2021/09/08 05:38:41;;;;;;;19.25;12.15;;;;;;;13.29;85.15;96514.56;4976162;28;20227;-72
2021/09/08 05:41:10;;;;;;;20.97;12.87;;;;;;;13.50;85.03;96516.25;4976115;28;20203;-72
2021/09/08 05:43:37;;;;;;;18.45;12.50;;;;;;;13.38;85.75;96505.50;4976217;28;20230;-72
2021/09/08 05:46:04;;;;;;;20.02;13.55;;;;;;;13.34;87.01;96517.47;4975892;28;20204;-71
2021/09/08 05:48:32;;;;;;;22.50;15.23;;;;;;;13.55;87.29;96511.19;4976864;28;20203;-72
2021/09/08 05:50:59;;;;;;;25.23;15.40;;;;;;;13.54;87.64;96514.84;4977113;28;20208;-72
2021/09/08 05:53:25;;;;;;;31.70;18.25;;;;;;;13.73;88.50;96522.16;4977124;28;20293;-72
2021/09/08 05:55:54;;;;;;;32.45;19.02;;;;;;;13.90;89.55;96517.41;4975893;28;20208;-72
2021/09/08 05:58:23;;;;;;;36.50;19.42;;;;;;;14.10;89.85;96513.97;4975849;28;20227;-72
2021/09/08 06:00:49;;;;;;;39.15;21.25;;;;;;;14.20;90.57;96522.41;4977972;28;20214;-72
2021/09/08 06:03:16;;;;;;;39.55;21.27;;;;;;;14.40;90.02;96510.94;4978683;28;20282;-72
2021/09/08 06:05:42;;;;;;;42.42;22.77;;;;;;;14.61;90.25;96518.00;4980111;28;20270;-72
2021/09/08 06:08:09;;;;;;;41.88;22.17;;;;;;;14.68;90.47;96512.53;4979940;28;20245;-72
2021/09/08 06:10:35;;;;;;;41.30;23.83;;;;;;;14.81;93.06;96517.91;4980305;28;20214;-72
2021/09/08 06:13:02;;;;;;;42.85;23.52;;;;;;;14.94;93.61;96514.50;4979214;28;20203;-72
2021/09/08 06:15:31;;;;;;;40.58;22.95;;;;;;;15.18;93.61;96511.38;4978042;28;20218;-72
2021/09/08 06:17:58;;;;;;;44.65;24.17;;;;;;;15.13;94.58;96514.59;4978631;28;20234;-72
2021/09/08 06:20:24;;;;;;;44.30;24.13;;;;;;;15.10;95.89;96507.03;4979023;28;20679;-72
2021/09/08 06:22:51;;;;;;;41.97;23.35;;;;;;;15.17;95.10;96507.88;4979012;28;20203;-72
2021/09/08 06:25:17;;;;;;;40.33;23.15;;;;;;;15.30;94.47;96508.78;4978512;28;20214;-72
2021/09/08 06:27:44;;;;;;;42.70;22.98;;;;;;;15.34;94.88;96501.25;4978871;28;20242;-72
2021/09/08 06:30:11;;;;;;;30.67;17.15;;;;;;;15.64;94.18;96507.84;4978158;28;20199;-70
2021/09/08 06:32:39;;;;;;;34.25;17.05;;;;;;;16.02;92.12;96507.09;4978069;28;21000;-70
2021/09/08 06:35:06;;;;;;;25.90;15.38;;;;;;;16.37;89.43;96504.06;4977242;28;20211;-70
2021/09/08 06:37:32;;;;;;;34.22;19.08;;;;;;;16.56;87.65;96508.53;4977501;28;20238;-70
2021/09/08 06:39:59;;;;;;;29.77;16.98;;;;;;;16.94;85.77;96504.13;4978006;28;20203;-70
2021/09/08 06:42:26;;;;;;;27.65;15.85;;;;;;;16.98;85.78;96505.34;4977683;28;20211;-70
2021/09/08 06:44:53;;;;;;;30.50;16.35;;;;;;;17.12;84.86;96499.78;4977246;28;20651;-70
2021/09/08 06:47:20;;;;;;;29.35;16.38;;;;;;;17.34;84.25;96493.16;4977094;28;20658;-70
2021/09/08 06:49:48;;;;;;;27.88;16.60;;;;;;;17.62;82.86;96498.97;4977241;28;20203;-70
2021/09/08 06:52:15;;;;;;;30.50;18.25;;;;;;;17.05;85.65;96506.16;4978308;28;20206;-70
2021/09/08 06:54:42;;;;;;;29.02;16.83;;;;;;;17.39;84.13;96507.47;4977639;28;20215;-70
2021/09/08 06:57:09;;;;;;;28.02;16.05;;;;;;;17.76;82.50;96498.66;4976479;28;20235;-70
2021/09/08 06:59:35;;;;;;;30.42;16.08;;;;;;;17.63;81.93;96500.59;4977580;28;20207;-70
2021/09/08 07:02:02;;;;;;;24.73;14.88;;;;;;;17.71;81.66;96501.16;4978472;28;20214;-70
2021/09/08 07:04:28;;;;;;;27.90;15.70;;;;;;;17.72;82.74;96492.13;4976994;28;20203;-70
2021/09/08 07:06:56;;;;;;;28.08;15.45;;;;;;;18.00;82.59;96492.56;4976311;28;20226;-70
2021/09/08 07:09:23;;;;;;;28.33;16.00;;;;;;;17.88;80.28;96492.44;4977693;28;20210;-70
2021/09/08 07:11:49;;;;;;;26.30;15.15;;;;;;;18.07;80.03;96486.13;4976833;28;20199;-70
2021/09/08 07:14:15;;;;;;;23.50;14.32;;;;;;;18.31;79.49;96482.69;4975831;28;20207;-70
2021/09/08 07:16:42;;;;;;;24.98;14.48;;;;;;;18.43;78.96;96486.25;4976117;28;20227;-70
2021/09/08 07:19:08;;;;;;;26.30;14.18;;;;;;;18.63;77.81;96486.91;4976899;28;20227;-70
2021/09/08 07:21:35;;;;;;;26.58;16.40;;;;;;;18.38;78.60;96486.94;4978023;28;20205;-72
2021/09/08 07:24:03;;;;;;;28.05;16.48;;;;;;;18.61;79.56;96483.63;4975858;28;20699;-71
2021/09/08 07:26:33;;;;;;;28.83;17.48;;;;;;;18.20;81.38;96482.56;4978559;28;20596;-72
2021/09/08 07:28:59;;;;;;;28.98;16.92;;;;;;;17.88;82.02;96480.94;4978889;28;20200;-71
2021/09/08 07:31:26;;;;;;;28.55;16.88;;;;;;;17.95;83.70;96479.06;4978938;28;20207;-71
2021/09/08 07:33:52;;;;;;;33.15;18.48;;;;;;;18.01;82.28;96476.34;4979511;28;20199;-71
2021/09/08 07:36:19;;;;;;;34.17;17.73;;;;;;;18.10;82.73;96471.53;4978332;28;20238;-71
2021/09/08 07:38:46;;;;;;;30.55;17.45;;;;;;;18.24;83.44;96473.09;4979269;28;20970;-72
2021/09/08 07:41:18;;;;;;;30.63;18.02;;;;;;;18.42;83.55;96471.31;4976964;28;20290;-72
2021/09/08 07:43:44;;;;;;;31.77;18.77;;;;;;;18.28;83.40;96475.13;4976076;28;20244;-72
2021/09/08 07:46:11;;;;;;;31.63;17.42;;;;;;;18.57;79.96;96471.75;4975037;28;20545;-72
2021/09/08 07:48:38;;;;;;;33.25;18.50;;;;;;;18.65;81.76;96466.97;4975890;28;20211;-72
2021/09/08 07:51:05;;;;;;;28.83;17.35;;;;;;;18.43;83.31;96479.09;4975368;28;20196;-72
2021/09/08 07:53:32;;;;;;;33.10;18.00;;;;;;;18.57;80.79;96474.44;4975628;28;20852;-73
2021/09/08 07:55:58;;;;;;;34.15;18.67;;;;;;;18.66;81.07;96471.28;4974686;28;20211;-72
2021/09/08 07:58:26;;;;;;;33.75;17.40;;;;;;;18.70;82.53;96467.13;4975107;28;20227;-72
2021/09/08 08:00:52;;;;;;;27.30;16.55;;;;;;;18.46;80.65;96475.16;4974436;28;20622;-72
2021/09/08 08:03:20;;;;;;;31.38;17.35;;;;;;;18.93;80.63;96478.75;4975943;28;20256;-73
2021/09/08 08:05:46;;;;;;;29.65;17.60;;;;;;;18.74;81.17;96476.31;4974623;28;20210;-72
2021/09/08 08:08:13;;;;;;;29.98;17.98;;;;;;;18.87;80.36;96472.69;4974468;28;20219;-72
2021/09/08 08:10:39;;;;;;;27.45;16.60;;;;;;;18.90;80.62;96475.72;4975126;28;20214;-72
2021/09/08 08:13:06;;;;;;;27.58;16.38;;;;;;;19.29;78.36;96467.28;4976102;28;20211;-72
2021/09/08 08:15:34;;;;;;;24.77;15.45;;;;;;;19.70;77.53;96454.78;4973791;28;20211;-73
2021/09/08 08:18:00;;;;;;;31.80;16.77;;;;;;;19.38;79.77;96461.41;4974522;28;20524;-73
2021/09/08 08:20:27;;;;;;;30.23;17.08;;;;;;;19.52;79.44;96456.69;4975037;28;20203;-72
2021/09/08 08:22:53;;;;;;;32.55;17.52;;;;;;;19.47;77.48;96457.38;4972295;28;20667;-73
2021/09/08 08:25:27;;;;;;;25.65;15.65;;;;;;;19.69;78.29;96456.66;4974171;28;20207;-72
2021/09/08 08:27:53;;;;;;;29.13;15.90;;;;;;;19.53;77.70;96453.78;4974480;28;20254;-72
2021/09/08 08:30:20;;;;;;;30.52;17.08;;;;;;;19.69;78.01;96453.97;4975009;28;20211;-72
2021/09/08 08:32:48;;;;;;;27.27;15.50;;;;;;;20.11;77.04;96460.97;4975337;28;20230;-72
2021/09/08 08:35:16;;;;;;;27.92;15.65;;;;;;;20.01;77.99;96451.88;4976376;28;20219;-72
2021/09/08 08:37:43;;;;;;;25.73;15.73;;;;;;;19.99;77.12;96457.44;4976452;28;21020;-72
2021/09/08 08:40:11;;;;;;;28.33;17.13;;;;;;;20.28;75.74;96456.56;4976308;28;20597;-72
2021/09/08 08:42:38;;;;;;;28.85;16.10;;;;;;;20.01;78.17;96454.53;4976695;28;20207;-72
2021/09/08 08:45:06;;;;;;;26.95;15.45;;;;;;;20.14;77.30;96457.00;4977036;28;20576;-72
2021/09/08 08:47:34;;;;;;;30.38;15.85;;;;;;;20.28;78.04;96452.03;4975012;28;20232;-72
2021/09/08 08:50:01;;;;;;;28.15;15.57;;;;;;;20.60;76.88;96449.84;4976108;28;20203;-72
2021/09/08 08:52:28;;;;;;;25.40;16.10;;;;;;;20.63;75.71;96444.00;4976825;28;20206;-72
2021/09/08 08:54:54;;;;;;;24.95;15.02;;;;;;;20.77;73.53;96445.44;4976113;28;20215;-72
2021/09/08 08:57:21;;;;;;;23.00;14.25;;;;;;;20.83;72.76;96451.47;4976182;28;20227;-72
2021/09/08 08:59:49;;;;;;;26.35;14.65;;;;;;;21.02;74.86;96438.75;4976735;28;20223;-72
2021/09/08 09:02:20;;;;;;;23.95;14.93;;;;;;;21.18;72.14;96441.50;4977285;28;20248;-72
2021/09/08 09:04:47;;;;;;;27.92;15.30;;;;;;;20.92;75.25;96444.69;4977153;28;20206;-72
2021/09/08 09:07:23;;;;;;;26.17;15.57;;;;;;;21.32;72.76;96440.19;4975615;28;20718;-72
2021/09/08 09:09:51;;;;;;;21.83;13.90;;;;;;;21.39;73.19;96440.84;4976528;28;20210;-72
2021/09/08 09:12:18;;;;;;;24.65;14.00;;;;;;;21.53;72.84;96443.03;4976563;28;20322;-72
2021/09/08 09:14:44;;;;;;;25.55;15.52;;;;;;;21.57;73.48;96436.13;4978410;28;20570;-72
2021/09/08 09:17:12;;;;;;;28.38;16.08;;;;;;;21.26;72.46;96434.97;4978698;28;20227;-72
2021/09/08 09:19:46;;;;;;;28.00;15.80;;;;;;;21.36;73.52;96430.59;4975405;28;21170;-72
2021/09/08 09:22:12;;;;;;;24.95;15.07;;;;;;;21.56;73.17;96431.84;4972750;28;20207;-72
2021/09/08 09:24:41;;;;;;;27.05;14.73;;;;;;;21.95;74.24;96430.91;4975505;28;20211;-72
2021/09/08 09:27:11;;;;;;;27.02;14.20;;;;;;;22.21;69.90;96424.91;4975232;28;20596;-72
2021/09/08 09:29:43;;;;;;;22.70;14.43;;;;;;;22.22;72.18;96423.84;4976710;28;20288;-72
2021/09/08 09:32:11;;;;;;;24.48;14.38;;;;;;;22.25;73.41;96418.00;4976805;28;20295;-72
2021/09/08 09:34:39;;;;;;;27.35;14.75;;;;;;;22.53;71.04;96417.94;4976340;28;20235;-72
2021/09/08 09:37:07;;;;;;;23.95;14.60;;;;;;;22.69;68.86;96409.84;4975800;28;20223;-72
2021/09/08 09:39:35;;;;;;;27.45;15.57;;;;;;;22.60;70.35;96413.22;4979322;28;20273;-72
2021/09/08 09:42:07;;;;;;;24.55;15.18;;;;;;;22.72;69.53;96412.84;4980309;28;20210;-72
2021/09/08 09:44:34;;;;;;;22.85;13.73;;;;;;;22.64;69.92;96411.66;4979685;28;20204;-72
2021/09/08 09:47:01;;;;;;;21.63;13.27;;;;;;;22.58;67.61;96404.56;4978757;28;20280;-72
2021/09/08 09:49:31;;;;;;;21.77;13.45;;;;;;;22.84;68.41;96402.78;4977826;28;20207;-73
2021/09/08 09:51:58;;;;;;;25.48;13.82;;;;;;;23.02;67.68;96390.97;4977734;28;20203;-73
2021/09/08 09:54:25;;;;;;;24.90;14.50;;;;;;;23.24;67.69;96389.09;4977676;28;20215;-73
2021/09/08 09:56:52;;;;;;;24.15;13.63;;;;;;;23.08;68.16;96390.78;4977291;28;20230;-73
2021/09/08 09:59:21;;;;;;;22.27;13.40;;;;;;;23.22;66.93;96392.03;4977586;28;20458;-73
2021/09/08 10:01:47;;;;;;;19.83;12.60;;;;;;;23.25;65.21;96388.81;4976735;28;20306;-73
2021/09/08 10:04:15;;;;;;;20.65;12.75;;;;;;;23.27;65.87;96380.50;4977068;28;20574;-73
2021/09/08 10:06:43;;;;;;;20.23;12.43;;;;;;;23.27;66.79;96383.19;4976464;28;20238;-73
2021/09/08 10:09:15;;;;;;;20.63;12.60;;;;;;;23.66;66.75;96372.88;4976875;28;20694;-73
2021/09/08 10:11:45;;;;;;;21.70;11.75;;;;;;;23.85;64.23;96367.97;4978234;28;20211;-73
2021/09/08 10:14:14;;;;;;;19.45;12.88;;;;;;;24.13;64.75;96357.69;4978233;28;21311;-73
2021/09/08 10:16:46;;;;;;;22.45;13.23;;;;;;;23.86;65.12;96361.50;4977171;28;20231;-73
2021/09/08 10:19:13;;;;;;;22.40;12.95;;;;;;;23.65;65.20;96360.47;4977405;28;20313;-74
2021/09/08 10:21:45;;;;;;;19.45;12.48;;;;;;;23.85;65.13;96359.88;4978042;28;20554;-73
2021/09/08 10:24:12;;;;;;;22.00;13.20;;;;;;;24.05;64.05;96367.03;4975070;28;20214;-73
2021/09/08 10:26:38;;;;;;;25.65;13.57;;;;;;;24.02;63.88;96350.63;4976523;28;20716;-73
2021/09/08 10:29:07;;;;;;;18.13;11.68;;;;;;;24.34;63.84;96354.09;4977118;28;20203;-73
2021/09/08 10:31:34;;;;;;;19.60;12.20;;;;;;;24.56;64.05;96346.72;4977724;28;20211;-73
2021/09/08 10:34:04;;;;;;;20.33;13.10;;;;;;;24.27;65.79;96342.72;4977297;28;20223;-73
2021/09/08 10:36:31;;;;;;;18.95;12.55;;;;;;;24.27;61.73;96348.91;4977083;28;20227;-73
2021/09/08 10:39:09;;;;;;;18.85;11.48;;;;;;;24.76;62.87;96345.72;4976943;28;20223;-73
2021/09/08 10:41:41;;;;;;;18.95;11.73;;;;;;;24.55;63.76;96340.50;4977861;28;20580;-72
2021/09/08 10:44:08;;;;;;;21.48;12.63;;;;;;;24.55;65.05;96337.00;4976785;28;20701;-72
2021/09/08 10:46:52;;;;;;;19.90;11.95;;;;;;;24.87;62.43;96328.53;4975963;28;20234;-72
2021/09/08 10:49:47;;;;;;;21.08;12.73;;;;;;;24.71;62.62;96337.63;4977862;28;20206;-72
2021/09/08 10:52:16;;;;;;;20.33;11.35;;;;;;;24.77;61.64;96325.78;4974890;28;20403;-72
2021/09/08 10:55:22;;;;;;;21.85;11.30;;;;;;;25.19;59.42;96332.72;4976780;28;20219;-72
2021/09/08 10:57:56;;;;;;;16.55;10.60;;;;;;;25.36;58.17;96325.22;4916273;28;20232;-72
2021/09/08 11:00:27;;;;;;;18.27;10.88;;;;;;;25.23;61.09;96317.63;4916647;28;20323;-72
2021/09/08 11:02:54;;;;;;;18.60;11.10;;;;;;;25.13;60.79;96321.38;4950437;28;20203;-72
2021/09/08 11:05:22;;;;;;;17.58;11.63;;;;;;;25.31;60.13;96319.00;4975523;28;20206;-72
2021/09/08 11:07:50;;;;;;;20.30;11.32;;;;;;;25.25;61.55;96310.09;4975400;28;20231;-72
2021/09/08 11:10:26;;;;;;;17.30;10.88;;;;;;;25.16;59.78;96316.25;4977212;28;20208;-72
2021/09/08 11:12:55;;;;;;;18.92;10.50;;;;;;;25.33;60.79;96311.44;4976595;28;20206;-72
2021/09/08 11:15:31;;;;;;;18.73;10.85;;;;;;;25.56;59.69;96310.94;4975923;28;20226;-73
2021/09/08 11:17:57;;;;;;;16.83;10.40;;;;;;;25.23;59.79;96309.53;4981132;28;20767;-72